Time;durP1;ratioP1;P1;durP2;ratioP2;P2;SDS_P1;SDS_P2;PMS_P1;PMS_P2;Temp;Humidity;BMP_temperature;BMP_pressure;BME280_temperature;BME280_humidity;BME280_pressure;Samples;Min_cycle;Max_cycle;Signal;HPM_P1;HPM_P2
2021/10/05 00:00:00;;;;;;;2.88;1.20;;;11.60;93.40;;;;;;5116029;28;19904;-77
2021/10/05 00:02:25;;;;;;;3.60;1.20;;;11.60;93.30;;;;;;5116784;28;20045;-76
2021/10/05 00:04:51;;;;;;;2.90;0.90;;;11.60;93.30;;;;;;5116181;28;20568;-77
2021/10/05 00:07:18;;;;;;;2.88;1.05;;;11.60;93.30;;;;;;5115375;28;20477;-77
2021/10/05 00:09:44;;;;;;;2.95;1.10;;;11.60;93.30;;;;;;5116227;28;20382;-80
2021/10/05 00:12:10;;;;;;;4.03;1.25;;;11.70;93.30;;;;;;5116582;28;20110;-78
2021/10/05 00:14:35;;;;;;;4.60;1.45;;;11.70;93.30;;;;;;5098028;28;20082;-75
2021/10/05 00:17:01;;;;;;;3.67;1.20;;;11.70;93.30;;;;;;5117358;28;20051;-75
2021/10/05 00:19:27;;;;;;;3.13;1.25;;;11.70;93.30;;;;;;5115501;28;20509;-75
2021/10/05 00:21:53;;;;;;;3.20;1.20;;;11.70;93.20;;;;;;5115345;28;20032;-75
2021/10/05 00:24:18;;;;;;;2.58;1.20;;;11.70;93.20;;;;;;5116298;28;20036;-78
2021/10/05 00:26:45;;;;;;;4.28;1.20;;;11.70;93.20;;;;;;5115301;28;20045;-76
2021/10/05 00:29:10;;;;;;;;;;;11.70;93.10;;;;;;5115877;28;20123;-74
2021/10/05 00:31:36;;;;;;;4.10;1.27;;;11.70;93.10;;;;;;5114942;28;19955;-75
2021/10/05 00:34:02;;;;;;;2.75;1.10;;;11.70;93.00;;;;;;5114553;28;20096;-76
2021/10/05 00:36:28;;;;;;;3.15;1.33;;;11.70;93.10;;;;;;5113078;28;20135;-76
2021/10/05 00:38:53;;;;;;;3.08;1.13;;;11.60;93.10;;;;;;5112538;28;20056;-74
2021/10/05 00:41:19;;;;;;;4.90;1.30;;;11.70;93.20;;;;;;5113755;28;20040;-76
2021/10/05 00:43:45;;;;;;;4.00;1.20;;;11.70;93.30;;;;;;5116473;28;20043;-75
2021/10/05 00:46:11;;;;;;;4.03;1.23;;;11.70;93.30;;;;;;5098498;28;20038;-75
2021/10/05 00:48:36;;;;;;;3.60;1.20;;;11.70;93.30;;;;;;5114960;28;20129;-75
2021/10/05 00:51:02;;;;;;;4.18;2.03;;;11.60;93.20;;;;;;5115354;28;20036;-77
2021/10/05 00:53:28;;;;;;;3.45;1.42;;;11.60;93.30;;;;;;5114071;28;20088;-77
2021/10/05 00:55:54;;;;;;;3.83;1.90;;;11.50;93.40;;;;;;5119704;28;20102;-77
2021/10/05 00:58:20;;;;;;;3.03;1.50;;;11.50;93.50;;;;;;5121266;28;20023;-77
2021/10/05 01:00:46;;;;;;;3.90;1.45;;;11.40;93.60;;;;;;5119637;28;20370;-77
2021/10/05 01:03:12;;;;;;;4.03;1.75;;;11.40;93.80;;;;;;5119332;28;20051;-77
2021/10/05 01:05:38;;;;;;;4.15;1.60;;;11.40;93.80;;;;;;5119428;28;20026;-78
2021/10/05 01:08:04;;;;;;;6.43;2.20;;;11.40;93.90;;;;;;5117728;28;20055;-78
2021/10/05 01:10:30;;;;;;;4.47;2.10;;;11.40;93.90;;;;;;5120117;28;20099;-80
2021/10/05 01:12:58;;;;;;;5.25;1.88;;;11.40;94.00;;;;;;5119354;28;20116;-78
2021/10/05 01:15:25;;;;;;;4.10;1.83;;;11.50;94.10;;;;;;5121125;28;20031;-76
2021/10/05 01:17:53;;;;;;;4.30;1.83;;;11.50;94.10;;;;;;5119591;28;20051;-76
2021/10/05 01:20:19;;;;;;;4.68;1.70;;;11.50;94.20;;;;;;5120202;28;20140;-78
2021/10/05 01:22:45;;;;;;;;;;;11.50;94.30;;;;;;5084462;28;20032;-76
2021/10/05 01:25:13;;;;;;;4.55;1.88;;;11.60;94.30;;;;;;5117643;28;19953;-76
2021/10/05 01:27:51;;;;;;;4.50;2.00;;;11.60;94.20;;;;;;5117709;28;20408;-77
2021/10/05 01:30:18;;;;;;;5.28;1.88;;;11.50;94.30;;;;;;5119818;28;20481;-77
2021/10/05 01:32:44;;;;;;;3.70;1.92;;;11.60;94.40;;;;;;5118488;28;20027;-75
2021/10/05 01:35:11;;;;;;;6.45;2.20;;;11.60;94.40;;;;;;5119903;28;20042;-77
2021/10/05 01:37:37;;;;;;;6.45;2.28;;;11.60;94.50;;;;;;5119066;28;20028;-77
2021/10/05 01:40:04;;;;;;;;;;;11.60;94.50;;;;;;5119290;28;20027;-76
2021/10/05 01:42:30;;;;;;;6.18;2.53;;;11.60;94.50;;;;;;5118011;28;19916;-76
2021/10/05 01:44:56;;;;;;;4.88;2.55;;;11.60;94.40;;;;;;5115031;28;20031;-77
2021/10/05 01:47:22;;;;;;;4.55;2.60;;;11.60;94.50;;;;;;5115802;28;20461;-75
2021/10/05 01:49:48;;;;;;;5.28;2.40;;;11.60;94.60;;;;;;5115150;28;20489;-77
2021/10/05 01:52:14;;;;;;;5.90;2.70;;;11.70;94.60;;;;;;5119998;28;20058;-76
2021/10/05 01:54:39;;;;;;;5.25;2.50;;;11.70;94.70;;;;;;5119301;28;20493;-75
2021/10/05 01:57:05;;;;;;;5.55;2.85;;;11.70;94.70;;;;;;5117061;28;20035;-76
2021/10/05 01:59:31;;;;;;;5.00;2.75;;;11.70;94.70;;;;;;5117267;28;20071;-75
2021/10/05 02:01:57;;;;;;;5.85;3.17;;;11.80;94.80;;;;;;5117870;28;20074;-76
2021/10/05 02:04:23;;;;;;;5.80;2.88;;;11.80;94.80;;;;;;5099429;28;20031;-75
2021/10/05 02:06:48;;;;;;;5.68;3.10;;;11.80;94.80;;;;;;5118338;28;20024;-76
2021/10/05 02:09:14;;;;;;;5.88;3.03;;;11.70;94.80;;;;;;5118416;28;20028;-77
2021/10/05 02:11:40;;;;;;;6.88;3.08;;;11.70;94.90;;;;;;5117414;28;20020;-76
2021/10/05 02:14:06;;;;;;;;;;;11.60;95.00;;;;;;5118846;28;20397;-77
2021/10/05 02:16:33;;;;;;;8.02;3.53;;;11.60;95.00;;;;;;5118250;28;19908;-76
2021/10/05 02:18:59;;;;;;;6.68;2.78;;;11.60;95.00;;;;;;5117486;28;20054;-75
2021/10/05 02:21:24;;;;;;;6.30;2.72;;;11.60;95.10;;;;;;5119393;28;20440;-76
2021/10/05 02:26:35;;;;;;;6.60;2.70;;;11.50;95.10;;;;;;5118640;28;20186;-77
2021/10/05 02:29:01;;;;;;;8.60;2.70;;;11.60;95.30;;;;;;5119443;28;20502;-75
2021/10/05 02:31:28;;;;;;;5.60;2.92;;;11.60;95.10;;;;;;5119403;28;20414;-76
2021/10/05 02:33:54;;;;;;;5.25;2.47;;;11.60;95.20;;;;;;5117927;28;20435;-74
2021/10/05 02:36:20;;;;;;;4.82;2.60;;;11.60;95.20;;;;;;5119113;28;20027;-75
2021/10/05 02:38:46;;;;;;;6.43;2.75;;;11.60;95.10;;;;;;5119109;28;20378;-75
2021/10/05 02:41:12;;;;;;;5.70;3.08;;;11.60;95.20;;;;;;5117538;28;20028;-74
2021/10/05 02:43:38;;;;;;;5.38;2.67;;;11.60;95.20;;;;;;5119682;27;20077;-74
2021/10/05 02:46:04;;;;;;;6.90;2.78;;;11.60;95.20;;;;;;5120093;28;20469;-73
2021/10/05 02:48:29;;;;;;;5.93;2.83;;;11.60;95.20;;;;;;5118409;28;20016;-75
2021/10/05 02:50:55;;;;;;;5.15;2.20;;;11.60;95.20;;;;;;5117626;28;20090;-75
2021/10/05 02:53:21;;;;;;;6.13;2.55;;;11.70;95.20;;;;;;5119143;28;20024;-74
2021/10/05 02:55:47;;;;;;;5.57;2.50;;;11.70;95.20;;;;;;5118308;28;20032;-76
2021/10/05 02:58:14;;;;;;;5.97;2.53;;;11.60;95.10;;;;;;5115055;28;20469;-75
2021/10/05 03:00:41;;;;;;;6.05;2.17;;;11.60;95.10;;;;;;5116017;28;20439;-74
2021/10/05 03:03:06;;;;;;;;;;;11.60;95.20;;;;;;5115205;28;20130;-76
2021/10/05 03:05:32;;;;;;;5.15;2.20;;;11.60;95.20;;;;;;5117064;28;20374;-73
2021/10/05 03:07:58;;;;;;;5.10;1.90;;;11.50;95.10;;;;;;5116950;28;20031;-75
2021/10/05 03:10:27;;;;;;;4.32;2.25;;;11.50;95.20;;;;;;5117439;28;20520;-75
2021/10/05 03:12:52;;;;;;;4.03;2.00;;;11.50;95.20;;;;;;5116972;28;20087;-77
2021/10/05 03:15:18;;;;;;;5.65;2.22;;;11.60;95.20;;;;;;5113424;28;20123;-75
2021/10/05 03:17:44;;;;;;;4.65;1.55;;;11.60;95.20;;;;;;5113544;28;20039;-75
2021/10/05 03:20:10;;;;;;;8.18;1.90;;;11.60;95.10;;;;;;5114781;28;20110;-76
2021/10/05 03:22:36;;;;;;;5.57;1.77;;;11.60;95.10;;;;;;5114423;28;20039;-73
2021/10/05 03:25:02;;;;;;;;;;;11.50;95.10;;;;;;5115248;28;20027;-77
2021/10/05 03:27:28;;;;;;;7.22;2.10;;;11.50;95.10;;;;;;5115751;28;19910;-76
2021/10/05 03:29:54;;;;;;;5.57;2.13;;;11.50;95.00;;;;;;5117506;28;20023;-76
2021/10/05 03:32:19;;;;;;;5.20;1.90;;;11.50;95.20;;;;;;5117102;28;20077;-76
2021/10/05 03:34:45;;;;;;;6.18;3.05;;;11.50;95.20;;;;;;5099035;28;20039;-77
2021/10/05 03:37:14;;;;;;;6.45;2.15;;;11.50;95.20;;;;;;5117435;28;20431;-76
2021/10/05 03:39:40;;;;;;;7.35;2.45;;;11.50;95.30;;;;;;5116790;28;20436;-75
2021/10/05 03:42:06;;;;;;;4.35;2.40;;;11.50;95.40;;;;;;5116493;28;20043;-75
2021/10/05 03:44:31;;;;;;;5.88;2.42;;;11.50;95.40;;;;;;5117121;28;20036;-75
2021/10/05 03:46:59;;;;;;;6.15;2.63;;;11.50;95.40;;;;;;5118127;28;20073;-76
2021/10/05 03:49:25;;;;;;;7.63;3.33;;;11.50;95.40;;;;;;5118164;28;20031;-75
2021/10/05 03:51:50;;;;;;;7.85;2.97;;;11.50;95.40;;;;;;5117434;28;20390;-76
2021/10/05 03:54:16;;;;;;;6.25;3.20;;;11.50;95.40;;;;;;5099427;28;20032;-75
2021/10/05 03:56:42;;;;;;;6.15;3.20;;;11.50;95.40;;;;;;5116871;28;20031;-77
2021/10/05 03:59:08;;;;;;;8.57;3.08;;;11.50;95.40;;;;;;5115425;28;20032;-76
2021/10/05 04:01:34;;;;;;;8.23;3.22;;;11.40;95.40;;;;;;5112813;28;20036;-77
2021/10/05 04:04:00;;;;;;;7.60;3.13;;;11.40;95.40;;;;;;5114890;28;20020;-77
2021/10/05 04:06:25;;;;;;;8.60;3.25;;;11.40;95.40;;;;;;5095303;28;20038;-75
2021/10/05 04:08:51;;;;;;;6.15;3.15;;;11.40;95.40;;;;;;5095960;28;20051;-74
2021/10/05 04:11:17;;;;;;;7.55;3.85;;;11.40;95.40;;;;;;5113501;28;20023;-75
2021/10/05 04:13:43;;;;;;;8.73;3.78;;;11.30;95.40;;;;;;5115290;28;20051;-76
2021/10/05 04:16:08;;;;;;;7.03;3.53;;;11.30;95.40;;;;;;5115767;28;20036;-75
2021/10/05 04:18:34;;;;;;;9.15;4.00;;;11.30;95.40;;;;;;5113140;28;20031;-75
2021/10/05 04:21:00;;;;;;;8.20;3.78;;;11.20;95.30;;;;;;5114672;28;20034;-77
2021/10/05 04:23:26;;;;;;;8.77;4.30;;;11.10;95.40;;;;;;5114590;28;20032;-75
2021/10/05 04:25:51;;;;;;;12.60;4.82;;;11.10;95.40;;;;;;5114111;28;20036;-77
2021/10/05 04:28:17;;;;;;;8.90;3.97;;;11.00;95.40;;;;;;5112552;28;20035;-77
2021/10/05 04:30:43;;;;;;;9.30;3.92;;;11.00;95.40;;;;;;5112949;28;20024;-77
2021/10/05 04:33:09;;;;;;;9.27;4.20;;;11.00;95.50;;;;;;5114928;28;20024;-75
2021/10/05 04:35:34;;;;;;;7.85;3.97;;;11.00;95.50;;;;;;5096018;28;20040;-76
2021/10/05 04:38:00;;;;;;;10.40;3.90;;;11.00;95.50;;;;;;5114584;28;20027;-77
2021/10/05 04:40:26;;;;;;;7.63;4.32;;;10.90;95.50;;;;;;5112739;28;20035;-77
2021/10/05 04:42:52;;;;;;;9.18;3.47;;;10.90;95.60;;;;;;5114744;28;20127;-76
2021/10/05 04:45:18;;;;;;;9.00;4.07;;;10.90;95.70;;;;;;5114512;28;20059;-76
2021/10/05 04:47:44;;;;;;;10.43;3.67;;;10.90;95.70;;;;;;5113994;28;20015;-76
2021/10/05 04:50:11;;;;;;;9.60;3.75;;;10.90;95.60;;;;;;5112376;28;20036;-78
2021/10/05 04:52:37;;;;;;;8.20;3.53;;;10.80;95.60;;;;;;5112171;28;20034;-77
2021/10/05 04:55:05;;;;;;;8.70;3.80;;;10.90;95.60;;;;;;5113286;28;20028;-76
2021/10/05 04:57:30;;;;;;;9.80;4.25;;;10.80;95.50;;;;;;5112524;28;20051;-76
2021/10/05 04:59:56;;;;;;;8.90;3.25;;;10.90;95.50;;;;;;5112876;28;20493;-77
2021/10/05 05:02:22;;;;;;;7.38;2.92;;;10.80;95.50;;;;;;5113103;28;20066;-78
2021/10/05 05:04:48;;;;;;;10.10;3.17;;;10.80;95.60;;;;;;5113901;28;20088;-77
2021/10/05 05:07:13;;;;;;;10.57;4.18;;;10.80;95.50;;;;;;5114268;28;20031;-77
2021/10/05 05:09:39;;;;;;;7.88;2.92;;;10.70;95.50;;;;;;5113316;28;20161;-76
2021/10/05 05:12:05;;;;;;;9.13;2.60;;;10.70;95.50;;;;;;5116013;28;20031;-76
2021/10/05 05:14:31;;;;;;;8.20;3.35;;;10.60;95.50;;;;;;5113486;28;20036;-76
2021/10/05 05:16:57;;;;;;;6.70;2.67;;;10.60;95.60;;;;;;5114581;28;20039;-77
2021/10/05 05:19:23;;;;;;;7.97;2.30;;;10.50;95.60;;;;;;5114186;28;20063;-76
2021/10/05 05:21:48;;;;;;;8.75;2.10;;;10.50;95.70;;;;;;5115990;28;20393;-76
2021/10/05 05:24:15;;;;;;;10.10;2.88;;;10.50;95.80;;;;;;5115905;28;20039;-77
2021/10/05 05:26:40;;;;;;;4.80;1.85;;;10.50;95.90;;;;;;5115784;28;20039;-77
2021/10/05 05:29:06;;;;;;;6.32;2.70;;;10.50;95.90;;;;;;5115447;28;20076;-76
2021/10/05 05:31:32;;;;;;;4.93;1.80;;;10.60;95.90;;;;;;5113541;28;20032;-77
2021/10/05 05:33:58;;;;;;;11.02;5.35;;;10.60;95.90;;;;;;5113036;28;20076;-76
2021/10/05 05:36:24;;;;;;;4.45;1.30;;;10.70;96.00;;;;;;5113630;28;20028;-77
2021/10/05 05:38:49;;;;;;;3.78;1.55;;;10.60;96.00;;;;;;5112867;28;20039;-75
2021/10/05 05:41:15;;;;;;;8.63;2.15;;;10.60;95.90;;;;;;5116146;28;20056;-76
2021/10/05 05:43:41;;;;;;;9.70;1.30;;;10.60;95.90;;;;;;5117093;28;20039;-77
2021/10/05 05:46:06;;;;;;;4.25;1.15;;;10.50;95.90;;;;;;5114813;28;20474;-75
2021/10/05 05:48:32;;;;;;;7.38;1.48;;;10.50;96.00;;;;;;5116646;28;20032;-78
2021/10/05 05:50:58;;;;;;;5.45;1.33;;;10.50;96.00;;;;;;5118526;28;20034;-76
2021/10/05 05:53:23;;;;;;;7.30;1.45;;;10.50;96.00;;;;;;5118407;28;20036;-75
2021/10/05 05:55:49;;;;;;;6.45;1.27;;;10.40;96.00;;;;;;5118544;28;20485;-75
2021/10/05 05:58:17;;;;;;;4.70;1.40;;;10.40;96.10;;;;;;5117442;28;20039;-77
2021/10/05 06:00:44;;;;;;;4.18;0.90;;;10.40;96.10;;;;;;5118056;28;20458;-77
2021/10/05 06:03:11;;;;;;;3.72;1.02;;;10.30;96.10;;;;;;5117461;28;20073;-76
2021/10/05 06:05:38;;;;;;;4.63;1.20;;;10.30;96.10;;;;;;5117989;28;20474;-77
2021/10/05 06:08:04;;;;;;;6.80;1.50;;;10.30;96.10;;;;;;5116379;28;20047;-76
2021/10/05 06:10:30;;;;;;;4.80;1.10;;;10.20;96.00;;;;;;5117806;28;20023;-78
2021/10/05 06:12:56;;;;;;;5.82;1.23;;;10.20;96.00;;;;;;5116782;28;20419;-74
2021/10/05 06:15:22;;;;;;;5.57;2.00;;;10.10;96.00;;;;;;5115347;28;20027;-75
2021/10/05 06:17:49;;;;;;;;;;;10.00;96.00;;;;;;5115191;28;20030;-76
2021/10/05 06:20:17;;;;;;;;;;;10.00;96.00;;;;;;5115730;28;19926;-78
2021/10/05 06:22:43;;;;;;;6.57;1.25;;;10.00;95.90;;;;;;5115811;28;20258;-76
2021/10/05 06:25:16;;;;;;;3.13;1.10;;;9.90;95.80;;;;;;5117390;28;20051;-77
2021/10/05 06:27:42;;;;;;;5.50;1.13;;;9.90;95.90;;;;;;5117259;28;20022;-76
2021/10/05 06:30:10;;;;;;;6.32;1.38;;;9.90;95.90;;;;;;5114964;28;20481;-77
2021/10/05 06:32:36;;;;;;;3.90;1.13;;;9.80;96.00;;;;;;5118518;28;20058;-77
2021/10/05 06:35:04;;;;;;;5.45;1.60;;;9.80;96.00;;;;;;5117554;28;20024;-77
2021/10/05 06:37:30;;;;;;;8.07;1.20;;;9.80;96.30;;;;;;5117359;28;20027;-75
2021/10/05 06:39:56;;;;;;;6.47;1.55;;;9.80;96.10;;;;;;5116814;28;20507;-76
2021/10/05 06:42:21;;;;;;;5.82;1.13;;;9.70;96.10;;;;;;5117447;28;20061;-76
2021/10/05 06:44:47;;;;;;;5.07;0.98;;;9.70;96.10;;;;;;5117063;28;20431;-78
2021/10/05 06:47:13;;;;;;;9.45;2.25;;;9.70;96.10;;;;;;5116865;28;20509;-77
2021/10/05 06:49:39;;;;;;;5.00;1.25;;;9.70;96.10;;;;;;5116237;28;20071;-75
2021/10/05 06:52:08;;;;;;;4.68;1.05;;;9.70;96.20;;;;;;5115896;27;20031;-75
2021/10/05 06:54:34;;;;;;;5.80;1.40;;;9.70;96.20;;;;;;5114303;28;20035;-76
2021/10/05 06:56:59;;;;;;;3.90;0.90;;;9.70;96.10;;;;;;5117677;28;20034;-75
2021/10/05 06:59:25;;;;;;;4.50;1.35;;;9.70;96.10;;;;;;5117814;28;20175;-78
2021/10/05 07:01:51;;;;;;;8.50;1.30;;;9.70;96.10;;;;;;5115758;28;20032;-75
2021/10/05 07:04:18;;;;;;;6.32;1.48;;;9.70;96.10;;;;;;5116499;28;20427;-76
2021/10/05 07:06:44;;;;;;;;;;;9.70;96.10;;;;;;5116774;28;20077;-77
2021/10/05 07:09:11;;;;;;;2.63;1.00;;;9.70;96.10;;;;;;5116720;28;20419;-75
2021/10/05 07:11:37;;;;;;;4.75;1.63;;;9.70;95.90;;;;;;5116335;28;20024;-78
2021/10/05 07:14:03;;;;;;;4.72;1.15;;;9.70;96.00;;;;;;5115648;28;20032;-77
2021/10/05 07:16:29;;;;;;;16.02;6.88;;;9.70;96.00;;;;;;5114431;28;20035;-76
2021/10/05 07:18:55;;;;;;;5.85;1.92;;;9.70;96.00;;;;;;5114789;28;20036;-76
2021/10/05 07:21:23;;;;;;;4.93;1.30;;;9.70;96.00;;;;;;5080690;28;20038;-76
2021/10/05 07:23:49;;;;;;;5.75;1.67;;;9.70;96.00;;;;;;5114693;28;20076;-77
2021/10/05 07:26:18;;;;;;;5.45;1.23;;;9.80;96.10;;;;;;5112675;28;20028;-77
2021/10/05 07:28:45;;;;;;;6.20;1.10;;;9.80;96.10;;;;;;5112121;28;20028;-75
2021/10/05 07:31:11;;;;;;;3.47;1.10;;;9.90;96.20;;;;;;5113928;28;20389;-75
2021/10/05 07:33:37;;;;;;;3.25;1.17;;;9.90;96.20;;;;;;5112594;28;20403;-76
2021/10/05 07:36:03;;;;;;;9.38;0.90;;;9.90;96.20;;;;;;5113293;28;20110;-74
2021/10/05 07:38:29;;;;;;;6.13;1.30;;;10.00;96.20;;;;;;5112393;28;20031;-75
2021/10/05 07:40:54;;;;;;;4.72;1.08;;;10.00;96.20;;;;;;5111836;28;20039;-77
2021/10/05 07:43:20;;;;;;;4.80;1.10;;;10.10;96.10;;;;;;5112709;28;20044;-77
2021/10/05 07:45:47;;;;;;;5.30;1.25;;;10.10;96.20;;;;;;5112856;28;20077;-77
2021/10/05 07:48:13;;;;;;;3.35;1.17;;;10.20;96.20;;;;;;5113292;28;20027;-79
2021/10/05 07:50:39;;;;;;;4.57;1.10;;;10.30;96.30;;;;;;5111940;28;20020;-76
2021/10/05 07:53:05;;;;;;;3.45;0.93;;;10.30;96.30;;;;;;5110833;28;20047;-76
2021/10/05 07:55:31;;;;;;;6.53;1.40;;;10.40;96.20;;;;;;5110589;28;20130;-75
2021/10/05 07:57:58;;;;;;;7.90;1.25;;;10.50;96.20;;;;;;5113308;28;20099;-73
2021/10/05 08:00:24;;;;;;;4.35;1.13;;;10.60;96.10;;;;;;5112997;28;20377;-76
2021/10/05 08:02:49;;;;;;;7.25;2.10;;;10.70;96.20;;;;;;5095615;28;20038;-77
2021/10/05 08:05:16;;;;;;;8.63;1.58;;;10.80;96.40;;;;;;5094887;28;20031;-75
2021/10/05 08:07:43;;;;;;;6.40;1.05;;;10.90;96.30;;;;;;5112855;28;20035;-75
2021/10/05 08:10:10;;;;;;;7.25;1.08;;;11.10;96.40;;;;;;5095032;28;20027;-76
2021/10/05 08:12:36;;;;;;;6.35;1.20;;;11.40;96.70;;;;;;5113832;28;20027;-75
2021/10/05 08:15:02;;;;;;;5.05;1.50;;;12.20;97.10;;;;;;5114457;28;20069;-77
2021/10/05 08:17:28;;;;;;;4.28;0.75;;;12.80;96.70;;;;;;5113076;28;20423;-75
2021/10/05 08:19:54;;;;;;;4.45;1.20;;;13.80;96.70;;;;;;5114833;28;20032;-75
2021/10/05 08:22:20;;;;;;;4.40;0.80;;;15.00;96.30;;;;;;5112809;28;20027;-75
2021/10/05 08:24:46;;;;;;;5.15;0.98;;;16.10;95.20;;;;;;5113437;28;20039;-75
2021/10/05 08:27:12;;;;;;;4.15;1.20;;;17.10;93.70;;;;;;5114169;28;20200;-76
2021/10/05 08:29:39;;;;;;;5.90;2.78;;;17.80;92.50;;;;;;5111747;28;20036;-74
2021/10/05 08:32:07;;;;;;;5.32;1.25;;;18.40;90.90;;;;;;5114169;28;20024;-75
2021/10/05 08:34:33;;;;;;;3.50;1.08;;;18.50;89.10;;;;;;5112170;28;20084;-74
2021/10/05 08:37:02;;;;;;;4.70;1.20;;;19.00;88.50;;;;;;5112229;28;20046;-77
2021/10/05 08:39:28;;;;;;;3.08;0.73;;;19.50;85.90;;;;;;5114003;28;20027;-75
2021/10/05 08:41:53;;;;;;;;;;;20.10;83.70;;;;;;5112139;28;20802;-74
2021/10/05 08:44:22;;;;;;;3.15;0.80;;;20.50;82.60;;;;;;5114214;28;19926;-74
2021/10/05 08:46:48;;;;;;;2.95;1.10;;;20.90;81.30;;;;;;5114518;28;20050;-76
2021/10/05 08:49:14;;;;;;;;;;;21.30;79.00;;;;;;5111926;28;20055;-76
2021/10/05 08:51:40;;;;;;;4.00;1.40;;;21.70;78.70;;;;;;5111950;28;19908;-78
2021/10/05 08:54:08;;;;;;;;;;;22.00;77.90;;;;;;5111139;28;20066;-74
2021/10/05 08:56:34;;;;;;;5.63;1.27;;;22.50;78.50;;;;;;5102381;28;19916;-75
2021/10/05 08:59:00;;;;;;;3.83;1.42;;;23.00;77.30;;;;;;5098609;28;20111;-75
2021/10/05 09:01:34;;;;;;;5.05;1.25;;;23.60;74.60;;;;;;5096020;28;20485;-74
2021/10/05 09:04:02;;;;;;;4.18;1.05;;;23.90;71.20;;;;;;5091703;28;20027;-75
2021/10/05 09:06:27;;;;;;;2.25;0.60;;;24.20;69.90;;;;;;5091410;28;20020;-76
2021/10/05 09:08:54;;;;;;;6.68;1.70;;;24.30;68.40;;;;;;5091655;28;20531;-76
2021/10/05 09:11:24;;;;;;;5.05;1.20;;;24.30;66.60;;;;;;5093318;28;20039;-74
2021/10/05 09:13:55;;;;;;;3.35;1.08;;;24.20;65.50;;;;;;5093548;28;20035;-77
2021/10/05 09:16:23;;;;;;;3.15;0.95;;;24.00;64.60;;;;;;5102073;28;20442;-76
2021/10/05 09:18:53;;;;;;;3.20;0.70;;;24.10;65.20;;;;;;5114639;28;20024;-77
2021/10/05 09:21:19;;;;;;;2.63;0.80;;;24.00;63.20;;;;;;5098179;28;20104;-77
2021/10/05 09:24:02;;;;;;;1.38;0.50;;;23.50;63.30;;;;;;5108028;28;20521;-77
2021/10/05 09:26:52;;;;;;;1.63;0.50;;;23.70;63.40;;;;;;5112077;28;20019;-77
2021/10/05 09:29:28;;;;;;;3.30;0.95;;;23.30;62.10;;;;;;5102703;28;20023;-75
2021/10/05 09:32:01;;;;;;;3.70;0.80;;;23.20;62.30;;;;;;5110829;28;20447;-75
2021/10/05 09:34:43;;;;;;;3.00;0.70;;;23.30;62.90;;;;;;5107698;28;20027;-78
2021/10/05 09:37:19;;;;;;;2.17;0.40;;;23.30;61.80;;;;;;5096798;28;20077;-76
2021/10/05 09:39:54;;;;;;;3.13;0.95;;;23.10;62.00;;;;;;5115794;28;20578;-77
2021/10/05 09:42:29;;;;;;;1.90;0.50;;;23.00;62.10;;;;;;5115958;28;20047;-78
2021/10/05 09:44:59;;;;;;;4.13;0.98;;;23.10;61.80;;;;;;5116549;28;20039;-77
2021/10/05 09:47:35;;;;;;;6.05;0.70;;;23.00;61.90;;;;;;5114860;28;20160;-77
2021/10/05 09:50:09;;;;;;;2.13;0.70;;;22.80;60.80;;;;;;5112406;28;20022;-75
2021/10/05 09:52:49;;;;;;;2.58;0.60;;;22.70;61.70;;;;;;5104644;28;20397;-77
2021/10/05 09:55:19;;;;;;;9.65;2.33;;;22.50;60.90;;;;;;5105770;28;20103;-76
2021/10/05 09:57:48;;;;;;;5.88;1.38;;;22.70;61.80;;;;;;5110500;28;20103;-75
2021/10/05 10:00:15;;;;;;;5.05;0.75;;;23.10;61.90;;;;;;5111362;28;20496;-76
2021/10/05 10:02:42;;;;;;;3.58;1.00;;;23.30;60.50;;;;;;5115562;28;20672;-75
2021/10/05 10:05:17;;;;;;;1.33;0.38;;;23.00;60.20;;;;;;5115957;28;20099;-74
2021/10/05 10:07:45;;;;;;;5.63;1.00;;;23.20;60.30;;;;;;5115409;28;20020;-77
2021/10/05 10:10:13;;;;;;;3.20;0.80;;;23.10;60.50;;;;;;5115879;28;20023;-77
2021/10/05 10:12:42;;;;;;;3.28;0.55;;;23.50;61.10;;;;;;5115839;28;20024;-76
2021/10/05 10:15:09;;;;;;;4.85;0.57;;;23.90;59.80;;;;;;5114028;28;20048;-76
2021/10/05 10:17:35;;;;;;;3.30;0.75;;;23.90;58.60;;;;;;5114054;28;20504;-76
2021/10/05 10:20:01;;;;;;;4.15;0.73;;;23.30;57.90;;;;;;5115396;28;20095;-77
2021/10/05 10:22:27;;;;;;;2.25;0.55;;;22.70;58.10;;;;;;5113586;28;20108;-74
2021/10/05 10:24:55;;;;;;;;;;;22.10;59.10;;;;;;5114288;28;20098;-71
2021/10/05 10:27:21;;;;;;;;;;;21.60;59.80;;;;;;5116166;28;19904;-83
2021/10/05 10:29:47;;;;;;;3.70;0.75;;;21.10;60.60;;;;;;5115887;28;20325;-73
2021/10/05 10:32:19;;;;;;;2.50;0.70;;;21.30;62.50;;;;;;5116408;28;20050;-80
2021/10/05 10:34:47;;;;;;;4.30;1.10;;;22.30;62.80;;;;;;5114827;28;20481;-79
2021/10/05 10:37:21;;;;;;;8.80;3.55;;;23.00;61.10;;;;;;5116470;28;20032;-79
2021/10/05 10:39:47;;;;;;;2.33;0.60;;;23.50;59.60;;;;;;5115559;28;20020;-82
2021/10/05 10:42:29;;;;;;;5.38;0.75;;;23.50;59.20;;;;;;5115674;27;20068;-78
2021/10/05 10:44:56;;;;;;;7.78;1.90;;;23.20;58.40;;;;;;5115833;28;20031;-79
2021/10/05 10:47:24;;;;;;;4.32;1.40;;;22.50;58.50;;;;;;5097847;28;20027;-78
2021/10/05 10:50:02;;;;;;;4.30;0.70;;;21.70;59.00;;;;;;5097266;28;20023;-78
2021/10/05 10:52:30;;;;;;;8.70;1.25;;;21.10;59.70;;;;;;5114456;28;20172;-79
2021/10/05 10:54:57;;;;;;;4.43;0.73;;;20.60;60.60;;;;;;5114823;28;20019;-77
2021/10/05 10:57:40;;;;;;;3.53;0.80;;;20.30;61.20;;;;;;5096667;28;20024;-78
2021/10/05 11:00:24;;;;;;;3.58;0.70;;;20.10;61.60;;;;;;5113472;28;20088;-78
2021/10/05 11:02:58;;;;;;;4.13;0.75;;;19.80;61.70;;;;;;5114405;28;20026;-79
2021/10/05 11:05:25;;;;;;;4.68;1.00;;;19.60;62.50;;;;;;5114327;28;20418;-78
2021/10/05 11:07:55;;;;;;;4.32;1.20;;;19.80;62.70;;;;;;5112875;28;20072;-77
2021/10/05 11:10:30;;;;;;;4.95;1.20;;;19.50;62.50;;;;;;5114893;28;20047;-78
2021/10/05 11:12:59;;;;;;;2.33;0.75;;;19.20;62.50;;;;;;5098568;28;20028;-77
2021/10/05 11:15:45;;;;;;;3.33;0.80;;;18.70;63.10;;;;;;5100613;28;20024;-79
2021/10/05 11:18:16;;;;;;;5.70;1.20;;;18.70;64.90;;;;;;5114580;28;20020;-78
2021/10/05 11:20:48;;;;;;;8.88;1.15;;;19.30;65.60;;;;;;5114306;28;20102;-80
2021/10/05 11:23:15;;;;;;;3.70;1.00;;;20.20;65.10;;;;;;5112389;28;20463;-78
2021/10/05 11:25:48;;;;;;;6.25;1.00;;;21.00;64.30;;;;;;5112225;28;20030;-78
2021/10/05 11:28:16;;;;;;;3.00;1.00;;;21.70;62.50;;;;;;5112595;28;20031;-77
2021/10/05 11:30:46;;;;;;;2.90;0.73;;;21.60;61.20;;;;;;5114118;28;20493;-75
2021/10/05 11:33:25;;;;;;;5.18;1.85;;;21.30;60.60;;;;;;5112142;28;20118;-76
2021/10/05 11:35:52;;;;;;;4.78;0.90;;;20.70;60.40;;;;;;5112768;28;20069;-78
2021/10/05 11:38:18;;;;;;;4.50;0.95;;;20.20;60.90;;;;;;5095285;28;20027;-76
2021/10/05 11:40:50;;;;;;;;;;;20.50;62.50;;;;;;5114285;28;20039;-75
2021/10/05 11:43:16;;;;;;;6.05;1.40;;;21.00;62.40;;;;;;5112934;28;19922;-80
2021/10/05 11:45:41;;;;;;;;;;;21.10;61.60;;;;;;5112922;28;20036;-75
2021/10/05 11:48:07;;;;;;;4.97;1.30;;;21.30;61.90;;;;;;5112341;28;19908;-81
2021/10/05 11:50:32;;;;;;;;;;;21.20;61.00;;;;;;5113336;28;20076;-81
2021/10/05 11:52:58;;;;;;;7.22;2.05;;;21.10;61.10;;;;;;5112594;28;19908;-79
2021/10/05 11:55:24;;;;;;;;;;;20.90;60.60;;;;;;5078652;28;20139;-78
2021/10/05 11:57:54;;;;;;;12.65;3.97;;;21.30;61.90;;;;;;5111875;28;19915;-79
2021/10/05 12:00:20;;;;;;;8.43;1.60;;;21.90;61.20;;;;;;5112314;28;20080;-74
2021/10/05 12:02:45;;;;;;;;;;;22.30;59.90;;;;;;5114133;28;20027;-84
2021/10/05 12:05:23;;;;;;;5.80;2.47;;;22.20;59.30;;;;;;5112561;28;19911;-77
2021/10/05 12:07:48;;;;;;;7.78;1.80;;;22.00;59.20;;;;;;5112324;28;20404;-78
2021/10/05 12:10:14;;;;;;;;;;;22.30;59.80;;;;;;5112578;28;20035;-75
2021/10/05 12:12:40;;;;;;;11.98;1.30;;;22.70;59.70;;;;;;5110946;28;19930;-76
2021/10/05 12:15:19;;;;;;;5.90;0.90;;;22.60;57.90;;;;;;5111840;28;20065;-80
2021/10/05 12:17:58;;;;;;;4.57;1.33;;;22.00;57.20;;;;;;5112231;28;20114;-76
2021/10/05 12:20:24;;;;;;;2.72;1.00;;;21.20;57.40;;;;;;5113284;28;20106;-76
2021/10/05 12:22:50;;;;;;;;;;;20.50;58.40;;;;;;5105776;28;20504;-76
2021/10/05 12:25:17;;;;;;;6.88;1.40;;;20.30;59.70;;;;;;5101985;28;19914;-78
2021/10/05 12:27:47;;;;;;;5.18;1.00;;;20.20;59.30;;;;;;5111309;28;20038;-76
2021/10/05 12:30:22;;;;;;;5.88;1.27;;;19.90;59.10;;;;;;5107245;28;20027;-76
2021/10/05 12:32:50;;;;;;;8.30;2.25;;;19.70;59.70;;;;;;5111766;28;20027;-72
2021/10/05 12:35:37;;;;;;;6.93;1.20;;;19.40;60.10;;;;;;5105328;28;20068;-76
2021/10/05 12:38:18;;;;;;;3.13;0.77;;;19.60;60.90;;;;;;5092346;28;20462;-77
2021/10/05 12:40:43;;;;;;;10.48;1.60;;;20.30;61.00;;;;;;5101203;28;20060;-76
2021/10/05 12:43:10;;;;;;;;;;;21.00;60.70;;;;;;5104938;28;20477;-79
2021/10/05 12:45:39;;;;;;;3.33;0.70;;;21.50;60.00;;;;;;5103771;28;19930;-78
2021/10/05 12:48:06;;;;;;;1.98;0.50;;;21.70;58.60;;;;;;5100833;28;20024;-77
2021/10/05 12:50:40;;;;;;;12.20;1.42;;;21.40;57.70;;;;;;5097398;28;20024;-78
2021/10/05 12:53:06;;;;;;;4.60;0.90;;;21.30;58.00;;;;;;5113891;28;20533;-77
2021/10/05 12:55:33;;;;;;;7.18;1.00;;;21.60;58.30;;;;;;5097666;28;20023;-77